createdAt,value
2023-02-28T00:01:35.922Z,15.20
2023-02-28T00:04:04.353Z,14.43
2023-02-28T00:06:34.154Z,14.15
2023-02-28T00:09:00.996Z,13.43
2023-02-28T00:11:28.248Z,13.40
2023-02-28T00:13:59.601Z,14.30
2023-02-28T00:16:27.678Z,12.68
2023-02-28T00:18:55.683Z,12.35
2023-02-28T00:21:22.811Z,12.05
2023-02-28T00:23:50.080Z,14.57
2023-02-28T00:26:17.203Z,12.75
2023-02-28T00:28:47.304Z,14.05
2023-02-28T00:31:19.162Z,16.55
2023-02-28T00:33:49.888Z,11.63
2023-02-28T00:36:18.751Z,11.82
2023-02-28T00:38:45.759Z,14.13
2023-02-28T00:41:17.343Z,11.00
2023-02-28T00:43:45.150Z,11.35
2023-02-28T00:46:13.576Z,9.35
2023-02-28T00:48:40.486Z,14.40
2023-02-28T00:51:07.269Z,12.85
2023-02-28T00:53:34.385Z,11.95
2023-02-28T00:56:03.717Z,11.10
2023-02-28T00:58:32.736Z,15.73
2023-02-28T01:01:01.628Z,15.07
2023-02-28T01:03:29.781Z,13.70
2023-02-28T01:05:57.217Z,13.77
2023-02-28T01:08:24.590Z,15.32
2023-02-28T01:10:51.672Z,12.02
2023-02-28T01:13:21.473Z,10.68
2023-02-28T01:15:54.050Z,13.15
2023-02-28T01:20:52.947Z,15.77
2023-02-28T01:23:21.421Z,12.27
2023-02-28T01:25:48.397Z,12.77
2023-02-28T01:28:15.355Z,14.30
2023-02-28T01:30:42.537Z,17.98
2023-02-28T01:33:09.598Z,16.45
2023-02-28T01:35:38.650Z,13.20
2023-02-28T01:38:20.955Z,14.60
2023-02-28T01:40:49.040Z,14.02
2023-02-28T01:43:44.968Z,17.52
2023-02-28T01:46:15.124Z,12.75
2023-02-28T01:48:54.672Z,14.13
2023-02-28T01:51:28.370Z,16.17
2023-02-28T01:54:06.901Z,13.50
2023-02-28T01:56:37.523Z,14.65
2023-02-28T01:59:06.148Z,14.17
2023-02-28T02:01:37.042Z,14.13
2023-02-28T02:04:04.964Z,15.00
2023-02-28T02:06:41.081Z,14.20
2023-02-28T02:09:10.880Z,16.52
2023-02-28T02:11:41.709Z,15.35
2023-02-28T02:14:12.938Z,16.48
2023-02-28T02:16:48.882Z,15.82
2023-02-28T02:19:46.571Z,19.85
2023-02-28T02:22:56.076Z,14.52
2023-02-28T02:26:13.260Z,16.05
2023-02-28T02:29:09.463Z,16.88
2023-02-28T02:32:06.322Z,14.93
2023-02-28T02:34:44.450Z,14.00
2023-02-28T02:37:32.357Z,15.90
2023-02-28T02:40:14.729Z,15.27
2023-02-28T02:43:03.003Z,13.93
2023-02-28T02:45:37.716Z,14.68
2023-02-28T02:48:10.832Z,14.98
2023-02-28T02:50:43.963Z,17.13
2023-02-28T02:53:13.544Z,19.35
2023-02-28T02:55:45.888Z,15.70
2023-02-28T02:58:17.855Z,15.73
2023-02-28T03:00:54.281Z,17.00
2023-02-28T03:03:30.026Z,16.58
2023-02-28T03:06:00.019Z,18.65
2023-02-28T03:08:28.170Z,16.73
2023-02-28T03:11:02.102Z,13.35
2023-02-28T03:14:06.661Z,17.67
2023-02-28T03:17:09.251Z,17.80
2023-02-28T03:20:09.122Z,17.42
2023-02-28T03:23:09.258Z,18.75
2023-02-28T03:25:53.659Z,16.20
2023-02-28T03:28:34.088Z,19.92
2023-02-28T03:31:22.187Z,19.70
2023-02-28T03:34:02.254Z,16.60
2023-02-28T03:36:34.250Z,17.45
2023-02-28T03:39:06.463Z,16.67
2023-02-28T03:41:48.816Z,18.70
2023-02-28T03:44:31.397Z,17.40
2023-02-28T03:47:08.548Z,21.30
2023-02-28T03:49:55.746Z,21.13
2023-02-28T03:52:27.360Z,20.90
2023-02-28T03:55:03.608Z,20.15
2023-02-28T03:57:41.033Z,22.58
2023-02-28T04:00:17.353Z,21.95
2023-02-28T04:02:45.489Z,27.17
2023-02-28T04:05:12.747Z,21.35
2023-02-28T04:07:40.596Z,22.08
2023-02-28T04:10:08.062Z,21.35
2023-02-28T04:12:35.061Z,20.25
2023-02-28T04:15:03.261Z,18.17
2023-02-28T04:17:31.146Z,22.60
2023-02-28T04:20:01.579Z,23.20
2023-02-28T04:22:30.436Z,23.52
2023-02-28T04:24:57.407Z,22.27
2023-02-28T04:27:26.507Z,21.02
2023-02-28T04:29:54.682Z,18.33
2023-02-28T04:32:22.080Z,22.27
2023-02-28T04:34:49.016Z,22.83
2023-02-28T04:37:19.986Z,19.67
2023-02-28T04:39:47.483Z,27.08
2023-02-28T04:42:14.622Z,24.58
2023-02-28T04:44:41.539Z,22.42
2023-02-28T04:47:15.924Z,22.08
2023-02-28T04:49:45.975Z,21.17
2023-02-28T04:52:14.856Z,22.20
2023-02-28T04:54:41.735Z,21.48
2023-02-28T04:57:08.562Z,19.33
2023-02-28T04:59:35.389Z,18.63
2023-02-28T05:02:07.775Z,24.77
2023-02-28T05:07:04.056Z,23.80
2023-02-28T05:09:31.168Z,21.73
2023-02-28T05:12:00.184Z,25.02
2023-02-28T05:14:28.036Z,28.35
2023-02-28T05:16:54.868Z,20.77
2023-02-28T05:19:22.756Z,27.05
2023-02-28T05:21:56.059Z,21.45
2023-02-28T05:24:23.882Z,19.77
2023-02-28T05:26:54.071Z,21.05
2023-02-28T05:29:22.624Z,20.27
2023-02-28T05:31:49.661Z,18.73
2023-02-28T05:34:17.081Z,24.58
2023-02-28T05:36:44.365Z,22.23
2023-02-28T05:39:14.088Z,21.73
2023-02-28T05:41:43.291Z,23.40
2023-02-28T05:44:11.098Z,25.15
2023-02-28T05:46:38.009Z,23.67
2023-02-28T05:49:06.573Z,18.80
2023-02-28T05:51:37.456Z,24.38
2023-02-28T05:54:04.537Z,21.00
2023-02-28T05:56:33.279Z,19.33
2023-02-28T05:59:00.165Z,22.45
2023-02-28T06:01:36.832Z,25.13
2023-02-28T06:04:09.882Z,25.95
2023-02-28T06:06:43.127Z,18.25
2023-02-28T06:09:10.377Z,20.58
2023-02-28T06:11:40.671Z,18.38
2023-02-28T06:14:07.897Z,20.13
2023-02-28T06:16:36.685Z,22.38
2023-02-28T06:19:05.212Z,18.77
2023-02-28T06:21:33.314Z,21.25
2023-02-28T06:24:00.570Z,20.70
2023-02-28T06:26:28.576Z,18.63
2023-02-28T06:28:56.850Z,22.40
2023-02-28T06:31:25.564Z,21.05
2023-02-28T06:33:54.688Z,25.67
2023-02-28T06:36:22.362Z,21.75
2023-02-28T06:38:52.591Z,18.38
2023-02-28T06:41:20.542Z,22.63
2023-02-28T06:43:48.693Z,19.45
2023-02-28T06:46:17.656Z,20.30
2023-02-28T06:48:46.241Z,20.27
2023-02-28T06:51:17.190Z,23.77
2023-02-28T06:53:46.149Z,33.65
2023-02-28T06:56:16.468Z,19.90
2023-02-28T06:58:46.671Z,19.88
2023-02-28T07:01:16.094Z,25.77
2023-02-28T07:03:43.070Z,20.05
2023-02-28T07:06:10.458Z,21.40
2023-02-28T07:08:42.222Z,20.73
2023-02-28T07:11:10.343Z,24.27
2023-02-28T07:13:39.202Z,20.27
2023-02-28T07:16:10.768Z,21.88
2023-02-28T07:18:41.591Z,17.27
2023-02-28T07:21:11.394Z,21.25
2023-02-28T07:23:40.549Z,28.10
2023-02-28T07:26:12.300Z,42.35
2023-02-28T07:28:39.290Z,36.60
2023-02-28T07:31:08.536Z,26.52
2023-02-28T07:33:36.444Z,20.48
2023-02-28T07:36:12.491Z,19.10
2023-02-28T07:38:40.793Z,15.40
2023-02-28T07:41:11.279Z,20.48
2023-02-28T07:43:38.263Z,18.27
2023-02-28T07:46:08.176Z,17.35
2023-02-28T07:48:35.475Z,16.70
2023-02-28T07:51:02.837Z,20.55
2023-02-28T07:53:30.642Z,13.43
2023-02-28T07:55:58.701Z,14.70
2023-02-28T07:58:26.908Z,16.30
2023-02-28T08:00:54.145Z,15.02
2023-02-28T08:03:31.960Z,21.42
2023-02-28T08:06:00.325Z,17.90
2023-02-28T08:08:30.242Z,16.98
2023-02-28T08:10:58.716Z,16.17
2023-02-28T08:13:25.771Z,18.23
2023-02-28T08:15:54.776Z,12.63
2023-02-28T08:18:22.149Z,14.60
2023-02-28T08:20:50.754Z,17.98
2023-02-28T08:23:18.030Z,17.55
2023-02-28T08:25:45.771Z,15.95
2023-02-28T08:28:14.668Z,12.82
2023-02-28T08:30:42.213Z,10.00
2023-02-28T08:33:10.397Z,10.52
2023-02-28T08:35:38.662Z,14.20
2023-02-28T08:38:07.531Z,10.20
2023-02-28T08:40:36.486Z,9.40
2023-02-28T08:43:04.539Z,20.23
2023-02-28T08:45:46.557Z,11.80
2023-02-28T08:48:14.556Z,10.35
2023-02-28T08:51:05.969Z,13.13
2023-02-28T08:53:37.460Z,13.98
2023-02-28T08:56:08.449Z,16.23
2023-02-28T08:58:37.738Z,15.98
2023-02-28T09:01:15.928Z,11.00
2023-02-28T09:03:43.963Z,12.57
2023-02-28T09:06:12.374Z,16.27
2023-02-28T09:08:42.205Z,9.30
2023-02-28T09:11:10.059Z,13.73
2023-02-28T09:13:37.943Z,10.82
2023-02-28T09:16:08.738Z,13.23
2023-02-28T09:18:38.448Z,10.70
2023-02-28T09:21:08.371Z,12.57
2023-02-28T09:23:39.232Z,11.13
2023-02-28T09:26:08.254Z,10.93
2023-02-28T09:28:36.256Z,10.13
2023-02-28T09:31:05.628Z,7.30
2023-02-28T09:33:33.040Z,7.95
2023-02-28T09:36:04.989Z,9.52
2023-02-28T09:38:36.930Z,8.38
2023-02-28T09:41:42.450Z,9.13
2023-02-28T09:47:09.212Z,7.43
2023-02-28T09:49:45.113Z,8.57
2023-02-28T09:52:31.381Z,8.32
2023-02-28T09:55:21.009Z,9.73
2023-02-28T09:58:01.298Z,9.10
2023-02-28T10:00:35.136Z,6.60
2023-02-28T10:03:37.023Z,9.45
2023-02-28T10:06:12.192Z,9.82
2023-02-28T10:08:52.077Z,9.13
2023-02-28T10:11:21.708Z,13.32
2023-02-28T10:14:02.940Z,11.55
2023-02-28T10:16:33.840Z,8.10
2023-02-28T10:19:06.814Z,5.88
2023-02-28T10:21:42.279Z,7.85
2023-02-28T10:24:21.299Z,7.65
2023-02-28T10:26:52.430Z,6.57
2023-02-28T10:29:22.121Z,8.35
2023-02-28T10:31:50.222Z,7.47
2023-02-28T10:34:20.450Z,10.65
2023-02-28T10:40:03.469Z,8.40
2023-02-28T10:48:32.299Z,13.20
2023-02-28T10:51:08.574Z,14.20
2023-02-28T10:59:43.757Z,10.70
2023-02-28T11:05:32.999Z,10.57
2023-02-28T11:08:20.391Z,3.78
2023-02-28T11:11:02.982Z,5.80
2023-02-28T11:13:38.203Z,4.65
2023-02-28T11:16:12.790Z,9.25
2023-02-28T11:18:47.838Z,6.45
2023-02-28T11:21:24.028Z,13.95
2023-02-28T11:23:56.144Z,5.75
2023-02-28T11:26:44.870Z,3.83
2023-02-28T11:29:23.005Z,4.35
2023-02-28T11:32:11.113Z,4.50
2023-02-28T11:34:42.202Z,7.57
2023-02-28T11:37:16.656Z,4.07
2023-02-28T11:39:48.725Z,8.18
2023-02-28T11:42:43.869Z,5.93
2023-02-28T11:45:35.177Z,4.70
2023-02-28T11:48:13.713Z,7.40
2023-02-28T11:51:11.645Z,5.25
2023-02-28T11:54:11.338Z,4.85
2023-02-28T11:57:02.230Z,5.00
2023-02-28T11:59:39.458Z,10.30
2023-02-28T12:02:29.588Z,9.68
2023-02-28T12:05:13.072Z,4.72
2023-02-28T12:07:48.746Z,5.95
2023-02-28T12:10:38.380Z,7.00
2023-02-28T12:13:20.712Z,4.43
2023-02-28T12:16:22.011Z,8.60
2023-02-28T12:18:54.274Z,7.43
2023-02-28T12:22:02.228Z,7.28
2023-02-28T12:24:46.611Z,6.22
2023-02-28T12:27:24.403Z,5.00
2023-02-28T12:30:05.650Z,3.95
2023-02-28T12:32:41.024Z,4.78
2023-02-28T12:35:16.882Z,6.05
2023-02-28T12:38:13.957Z,3.60
2023-02-28T12:41:07.983Z,5.03
2023-02-28T12:43:43.751Z,4.13
2023-02-28T12:46:33.495Z,4.22
2023-02-28T12:49:09.297Z,5.30
2023-02-28T12:51:37.982Z,4.93
2023-02-28T12:54:26.136Z,5.43
2023-02-28T12:56:59.099Z,4.38
2023-02-28T12:59:47.291Z,6.35
2023-02-28T13:02:33.593Z,4.70
2023-02-28T13:05:30.214Z,6.32
2023-02-28T13:08:12.495Z,6.80
2023-02-28T13:10:48.802Z,7.70
2023-02-28T13:13:23.595Z,5.88
2023-02-28T13:16:04.925Z,5.53
2023-02-28T13:18:43.029Z,4.30
2023-02-28T13:21:32.362Z,10.95
2023-02-28T13:24:05.773Z,4.03
2023-02-28T13:26:38.851Z,7.93
2023-02-28T13:29:11.885Z,10.65
2023-02-28T13:32:07.000Z,5.43
2023-02-28T13:34:40.459Z,5.00
2023-02-28T13:37:22.886Z,5.15
2023-02-28T13:39:57.306Z,6.18
2023-02-28T13:42:32.364Z,4.93
2023-02-28T13:45:05.535Z,3.75
2023-02-28T13:48:01.792Z,6.85
2023-02-28T13:50:41.570Z,5.75
2023-02-28T13:53:14.482Z,6.65
2023-02-28T13:56:01.034Z,8.45
2023-02-28T13:59:16.724Z,7.10
2023-02-28T14:02:30.091Z,5.22
2023-02-28T14:05:16.683Z,4.57
2023-02-28T14:10:44.382Z,4.25
2023-02-28T14:13:53.094Z,5.07
2023-02-28T14:16:29.915Z,9.30
2023-02-28T14:19:16.323Z,4.75
2023-02-28T14:22:30.329Z,10.35
2023-02-28T14:26:11.388Z,5.75
2023-02-28T14:34:06.076Z,4.78
2023-02-28T14:36:47.094Z,5.80
2023-02-28T14:39:21.796Z,6.95
2023-02-28T14:41:53.025Z,5.22
2023-02-28T14:44:31.792Z,7.70
2023-02-28T14:47:06.853Z,6.40
2023-02-28T14:49:40.059Z,6.47
2023-02-28T14:52:19.101Z,5.07
2023-02-28T14:54:48.615Z,5.75
2023-02-28T14:57:43.215Z,8.07
2023-02-28T15:00:16.218Z,5.63
2023-02-28T15:02:46.373Z,6.78
2023-02-28T15:08:30.493Z,7.38
2023-02-28T15:11:03.826Z,12.02
2023-02-28T15:13:49.707Z,11.55
2023-02-28T15:16:22.619Z,9.30
2023-02-28T15:19:01.339Z,7.47
2023-02-28T15:21:42.886Z,6.15
2023-02-28T15:24:43.464Z,5.53
2023-02-28T15:27:27.913Z,9.70
2023-02-28T15:29:59.848Z,5.50
2023-02-28T15:32:33.560Z,7.20
2023-02-28T15:38:22.748Z,5.88
2023-02-28T15:40:59.099Z,10.32
2023-02-28T15:43:32.666Z,10.77
2023-02-28T15:46:26.773Z,8.38
2023-02-28T15:48:57.841Z,6.47
2023-02-28T15:51:40.608Z,9.40
2023-02-28T15:54:13.472Z,6.80
2023-02-28T15:56:51.282Z,8.52
2023-02-28T15:59:25.186Z,7.35
2023-02-28T16:02:20.779Z,10.80
2023-02-28T16:04:58.200Z,6.13
2023-02-28T16:07:35.456Z,8.13
2023-02-28T16:10:17.219Z,11.75
2023-02-28T16:12:45.120Z,6.38
2023-02-28T16:15:20.478Z,7.03
2023-02-28T16:17:50.758Z,5.88
2023-02-28T16:20:26.518Z,7.85
2023-02-28T16:22:55.533Z,10.80
2023-02-28T16:25:34.986Z,9.60
2023-02-28T16:28:39.736Z,6.18
2023-02-28T16:31:15.731Z,9.07
2023-02-28T16:33:43.844Z,7.22
2023-02-28T16:36:20.260Z,6.85
2023-02-28T16:38:57.070Z,6.10
2023-02-28T16:41:28.966Z,6.78
2023-02-28T16:44:10.993Z,5.78
2023-02-28T16:46:38.313Z,6.60
2023-02-28T16:49:11.824Z,5.60
2023-02-28T16:51:44.125Z,6.28
2023-02-28T16:54:15.193Z,18.08
2023-02-28T16:56:48.994Z,8.13
2023-02-28T16:59:25.098Z,9.18
2023-02-28T17:04:40.821Z,8.02
2023-02-28T17:10:04.769Z,9.65
2023-02-28T17:12:33.337Z,10.32
2023-02-28T17:17:58.632Z,7.40
2023-02-28T17:20:29.314Z,6.63
2023-02-28T17:26:07.661Z,6.57
2023-02-28T17:28:38.733Z,7.90
2023-02-28T17:31:11.841Z,14.05
2023-02-28T17:33:39.380Z,8.25
2023-02-28T17:36:23.530Z,8.68
2023-02-28T17:38:56.282Z,7.43
2023-02-28T17:41:36.964Z,7.10
2023-02-28T17:44:07.218Z,11.18
2023-02-28T17:46:35.741Z,8.60
2023-02-28T17:49:06.974Z,9.98
2023-02-28T17:51:40.262Z,8.90
2023-02-28T17:54:09.132Z,11.43
2023-02-28T18:05:12.366Z,12.73
2023-02-28T18:07:44.420Z,9.63
2023-02-28T18:10:21.861Z,8.23
2023-02-28T18:12:55.441Z,7.40
2023-02-28T18:15:38.879Z,10.23
2023-02-28T18:28:58.836Z,9.15
2023-02-28T18:32:23.289Z,7.82
2023-02-28T18:34:55.202Z,7.50
2023-02-28T18:37:28.251Z,13.02
2023-02-28T18:39:59.497Z,9.90
2023-02-28T18:45:51.636Z,9.38
2023-02-28T18:48:51.366Z,9.70
2023-02-28T18:51:28.391Z,9.77
2023-02-28T18:54:01.572Z,9.20
2023-02-28T18:56:33.698Z,11.88
2023-02-28T18:59:02.193Z,12.10
2023-02-28T19:01:32.317Z,10.38
2023-02-28T19:04:40.049Z,12.20
2023-02-28T19:07:34.987Z,14.05
2023-02-28T19:10:23.064Z,9.95
2023-02-28T19:12:59.046Z,8.45
2023-02-28T19:18:54.886Z,11.82
2023-02-28T19:21:37.360Z,11.60
2023-02-28T19:24:06.122Z,11.38
2023-02-28T19:35:24.947Z,10.25
2023-02-28T19:38:22.631Z,19.33
2023-02-28T19:41:04.263Z,11.48
2023-02-28T19:43:46.084Z,11.10
2023-02-28T19:46:21.264Z,10.27
2023-02-28T19:48:52.130Z,10.88
2023-02-28T19:51:19.821Z,9.55
2023-02-28T19:53:49.399Z,13.05
2023-02-28T19:56:16.659Z,12.25
2023-02-28T19:58:43.953Z,13.15
2023-02-28T20:01:22.275Z,12.43
2023-02-28T20:03:52.892Z,12.48
2023-02-28T20:06:47.533Z,11.77
2023-02-28T20:09:19.737Z,13.18
2023-02-28T20:14:58.008Z,14.75
2023-02-28T20:17:26.564Z,12.38
2023-02-28T20:19:55.735Z,22.45
2023-02-28T20:22:23.086Z,19.52
2023-02-28T20:24:53.372Z,16.05
2023-02-28T20:27:20.421Z,14.68
2023-02-28T20:29:47.831Z,16.65
2023-02-28T20:32:14.990Z,14.18
2023-02-28T20:34:49.157Z,15.80
2023-02-28T20:37:19.800Z,15.38
2023-02-28T20:39:47.907Z,14.95
2023-02-28T20:42:16.335Z,16.60
2023-02-28T20:44:46.358Z,17.88
2023-02-28T20:47:13.974Z,21.20
2023-02-28T20:49:47.908Z,13.02
2023-02-28T20:52:16.481Z,15.88
2023-02-28T20:54:43.465Z,14.75
2023-02-28T20:57:11.006Z,15.38
2023-02-28T20:59:41.217Z,14.20
2023-02-28T21:02:09.963Z,17.88
2023-02-28T21:04:36.916Z,14.30
2023-02-28T21:07:04.546Z,14.30
2023-02-28T21:09:32.040Z,21.02
2023-02-28T21:12:01.015Z,17.65
2023-02-28T21:14:30.804Z,15.40
2023-02-28T21:16:58.017Z,12.95
2023-02-28T21:19:24.986Z,15.15
2023-02-28T21:21:59.324Z,15.57
2023-02-28T21:24:26.327Z,15.15
2023-02-28T21:26:55.130Z,16.77
2023-02-28T21:29:22.575Z,12.82
2023-02-28T21:31:52.238Z,16.02
2023-02-28T21:34:19.655Z,18.48
2023-02-28T21:36:48.169Z,16.25
2023-02-28T21:39:29.181Z,16.35
2023-02-28T21:42:04.453Z,17.77
2023-02-28T21:44:35.068Z,12.82
2023-02-28T21:47:10.915Z,15.10
2023-02-28T21:49:39.820Z,17.98
2023-02-28T21:52:07.935Z,16.77
2023-02-28T21:54:37.011Z,18.35
2023-02-28T21:57:07.037Z,18.23
2023-02-28T21:59:34.536Z,17.10
2023-02-28T22:02:06.032Z,16.60
2023-02-28T22:04:33.363Z,17.90
2023-02-28T22:07:02.719Z,14.65
2023-02-28T22:09:32.539Z,17.13
2023-02-28T22:12:00.660Z,15.52
2023-02-28T22:14:28.910Z,16.08
2023-02-28T22:17:03.931Z,18.15
2023-02-28T22:19:30.932Z,14.38
2023-02-28T22:22:07.069Z,21.08
2023-02-28T22:24:38.381Z,17.92
2023-02-28T22:27:05.314Z,18.17
2023-02-28T22:29:32.530Z,21.70
2023-02-28T22:32:03.048Z,17.30
2023-02-28T22:34:33.003Z,15.73
2023-02-28T22:37:01.985Z,16.83
2023-02-28T22:39:29.218Z,15.68
2023-02-28T22:41:57.205Z,15.80
2023-02-28T22:44:31.475Z,16.63
2023-02-28T22:46:59.632Z,14.15
2023-02-28T22:49:26.664Z,13.27
2023-02-28T22:51:55.281Z,17.58
2023-02-28T22:54:22.849Z,15.13
2023-02-28T22:56:49.735Z,15.13
2023-02-28T22:59:16.653Z,16.17
2023-02-28T23:01:44.911Z,19.55
2023-02-28T23:04:12.812Z,16.40
2023-02-28T23:06:42.690Z,17.75
2023-02-28T23:09:18.393Z,15.40
2023-02-28T23:11:48.934Z,15.65
2023-02-28T23:14:17.431Z,15.48
2023-02-28T23:16:54.861Z,15.65
2023-02-28T23:19:26.703Z,17.90
2023-02-28T23:21:54.042Z,16.83
2023-02-28T23:24:23.938Z,14.15
2023-02-28T23:26:53.738Z,17.10
2023-02-28T23:29:25.223Z,19.00
2023-02-28T23:31:52.794Z,15.70
2023-02-28T23:34:32.265Z,15.95
2023-02-28T23:37:01.926Z,16.17
2023-02-28T23:39:31.227Z,14.13
2023-02-28T23:41:58.880Z,18.77
2023-02-28T23:44:26.873Z,18.27
2023-02-28T23:46:54.915Z,16.05
2023-02-28T23:49:22.214Z,20.23
2023-02-28T23:51:51.125Z,19.25
2023-02-28T23:54:19.111Z,16.17
2023-02-28T23:56:46.568Z,15.32
2023-02-28T23:59:13.449Z,17.67
